sensor_id;sensor_type;location;lat;lon;timestamp;P1;durP1;ratioP1;P2;durP2;ratioP2
9322;SDS011;4700;48.822;9.270;2023-02-23T00:02:40;44.23;;;40.63;;
9322;SDS011;4700;48.822;9.270;2023-02-23T00:05:27;43.23;;;39.43;;
9322;SDS011;4700;48.822;9.270;2023-02-23T00:08:14;36.10;;;33.07;;
9322;SDS011;4700;48.822;9.270;2023-02-23T00:11:01;42.93;;;39.97;;
9322;SDS011;4700;48.822;9.270;2023-02-23T00:13:48;42.77;;;39.37;;
9322;SDS011;4700;48.822;9.270;2023-02-23T00:16:35;42.67;;;39.63;;
9322;SDS011;4700;48.822;9.270;2023-02-23T00:19:20;43.50;;;40.10;;
9322;SDS011;4700;48.822;9.270;2023-02-23T00:22:07;40.73;;;37.37;;
9322;SDS011;4700;48.822;9.270;2023-02-23T00:24:53;44.63;;;41.10;;
9322;SDS011;4700;48.822;9.270;2023-02-23T00:27:41;36.67;;;33.93;;
9322;SDS011;4700;48.822;9.270;2023-02-23T00:30:28;38.53;;;35.40;;
9322;SDS011;4700;48.822;9.270;2023-02-23T00:33:14;42.03;;;38.60;;
9322;SDS011;4700;48.822;9.270;2023-02-23T00:36:04;44.73;;;41.13;;
9322;SDS011;4700;48.822;9.270;2023-02-23T00:38:51;46.80;;;43.20;;
9322;SDS011;4700;48.822;9.270;2023-02-23T00:41:37;42.80;;;39.40;;
9322;SDS011;4700;48.822;9.270;2023-02-23T00:44:25;44.73;;;41.50;;
9322;SDS011;4700;48.822;9.270;2023-02-23T00:47:12;43.97;;;40.57;;
9322;SDS011;4700;48.822;9.270;2023-02-23T00:49:58;42.67;;;39.20;;
9322;SDS011;4700;48.822;9.270;2023-02-23T00:52:43;42.43;;;39.03;;
9322;SDS011;4700;48.822;9.270;2023-02-23T00:55:29;43.13;;;39.43;;
9322;SDS011;4700;48.822;9.270;2023-02-23T00:58:15;39.67;;;36.10;;
9322;SDS011;4700;48.822;9.270;2023-02-23T01:01:03;45.80;;;42.00;;
9322;SDS011;4700;48.822;9.270;2023-02-23T01:03:49;45.43;;;42.03;;
9322;SDS011;4700;48.822;9.270;2023-02-23T01:06:36;43.90;;;40.57;;
9322;SDS011;4700;48.822;9.270;2023-02-23T01:09:23;43.57;;;40.00;;
9322;SDS011;4700;48.822;9.270;2023-02-23T01:12:12;47.77;;;43.77;;
9322;SDS011;4700;48.822;9.270;2023-02-23T01:14:59;44.03;;;40.33;;
9322;SDS011;4700;48.822;9.270;2023-02-23T01:17:47;42.93;;;39.37;;
9322;SDS011;4700;48.822;9.270;2023-02-23T01:20:33;45.00;;;41.50;;
9322;SDS011;4700;48.822;9.270;2023-02-23T01:23:20;40.13;;;37.03;;
9322;SDS011;4700;48.822;9.270;2023-02-23T01:26:10;41.13;;;37.50;;
9322;SDS011;4700;48.822;9.270;2023-02-23T01:28:56;38.57;;;35.57;;
9322;SDS011;4700;48.822;9.270;2023-02-23T01:31:44;43.47;;;39.97;;
9322;SDS011;4700;48.822;9.270;2023-02-23T01:34:32;50.10;;;45.50;;
9322;SDS011;4700;48.822;9.270;2023-02-23T01:37:18;41.07;;;37.53;;
9322;SDS011;4700;48.822;9.270;2023-02-23T01:40:05;42.53;;;39.33;;
9322;SDS011;4700;48.822;9.270;2023-02-23T01:42:57;39.87;;;36.60;;
9322;SDS011;4700;48.822;9.270;2023-02-23T01:45:44;45.23;;;41.73;;
9322;SDS011;4700;48.822;9.270;2023-02-23T01:48:31;43.07;;;39.27;;
9322;SDS011;4700;48.822;9.270;2023-02-23T01:51:22;45.33;;;41.80;;
9322;SDS011;4700;48.822;9.270;2023-02-23T01:54:11;45.17;;;41.57;;
9322;SDS011;4700;48.822;9.270;2023-02-23T01:57:00;43.73;;;40.17;;
9322;SDS011;4700;48.822;9.270;2023-02-23T01:59:48;47.00;;;43.20;;
9322;SDS011;4700;48.822;9.270;2023-02-23T02:02:35;49.97;;;46.13;;
9322;SDS011;4700;48.822;9.270;2023-02-23T02:05:20;50.97;;;46.73;;
9322;SDS011;4700;48.822;9.270;2023-02-23T02:08:08;49.33;;;45.70;;
9322;SDS011;4700;48.822;9.270;2023-02-23T02:10:55;51.17;;;46.67;;
9322;SDS011;4700;48.822;9.270;2023-02-23T02:13:41;52.70;;;48.37;;
9322;SDS011;4700;48.822;9.270;2023-02-23T02:16:33;50.57;;;46.43;;
9322;SDS011;4700;48.822;9.270;2023-02-23T02:19:43;64.67;;;59.70;;
9322;SDS011;4700;48.822;9.270;2023-02-23T02:22:56;78.87;;;73.07;;
9322;SDS011;4700;48.822;9.270;2023-02-23T02:26:06;74.20;;;68.50;;
9322;SDS011;4700;48.822;9.270;2023-02-23T02:32:48;86.07;;;79.70;;
9322;SDS011;4700;48.822;9.270;2023-02-23T02:36:23;95.97;;;89.23;;
9322;SDS011;4700;48.822;9.270;2023-02-23T02:39:32;115.67;;;105.77;;
9322;SDS011;4700;48.822;9.270;2023-02-23T02:42:31;88.00;;;80.93;;
9322;SDS011;4700;48.822;9.270;2023-02-23T02:45:21;73.60;;;68.23;;
9322;SDS011;4700;48.822;9.270;2023-02-23T02:48:14;64.43;;;59.50;;
9322;SDS011;4700;48.822;9.270;2023-02-23T02:51:10;74.83;;;69.70;;
9322;SDS011;4700;48.822;9.270;2023-02-23T02:54:05;64.47;;;59.87;;
9322;SDS011;4700;48.822;9.270;2023-02-23T02:57:00;70.63;;;66.20;;
9322;SDS011;4700;48.822;9.270;2023-02-23T02:59:48;74.23;;;68.33;;
9322;SDS011;4700;48.822;9.270;2023-02-23T03:02:52;72.33;;;67.23;;
9322;SDS011;4700;48.822;9.270;2023-02-23T03:05:56;112.67;;;103.73;;
9322;SDS011;4700;48.822;9.270;2023-02-23T03:09:02;89.03;;;80.83;;
9322;SDS011;4700;48.822;9.270;2023-02-23T03:12:19;103.73;;;94.43;;
9322;SDS011;4700;48.822;9.270;2023-02-23T03:15:33;94.40;;;85.83;;
9322;SDS011;4700;48.822;9.270;2023-02-23T03:18:48;103.50;;;94.20;;
9322;SDS011;4700;48.822;9.270;2023-02-23T03:22:06;94.23;;;85.40;;
9322;SDS011;4700;48.822;9.270;2023-02-23T03:25:18;104.23;;;94.57;;
9322;SDS011;4700;48.822;9.270;2023-02-23T03:28:31;107.40;;;97.90;;
9322;SDS011;4700;48.822;9.270;2023-02-23T03:31:43;105.93;;;96.73;;
9322;SDS011;4700;48.822;9.270;2023-02-23T03:37:21;46.93;;;43.57;;
9322;SDS011;4700;48.822;9.270;2023-02-23T03:40:31;73.67;;;67.53;;
9322;SDS011;4700;48.822;9.270;2023-02-23T03:43:39;67.87;;;63.07;;
9322;SDS011;4700;48.822;9.270;2023-02-23T03:46:47;88.10;;;80.70;;
9322;SDS011;4700;48.822;9.270;2023-02-23T03:49:53;77.80;;;70.80;;
9322;SDS011;4700;48.822;9.270;2023-02-23T03:52:58;69.67;;;64.20;;
9322;SDS011;4700;48.822;9.270;2023-02-23T03:56:04;76.40;;;69.40;;
9322;SDS011;4700;48.822;9.270;2023-02-23T03:59:12;97.60;;;88.70;;
9322;SDS011;4700;48.822;9.270;2023-02-23T04:02:19;81.20;;;74.50;;
9322;SDS011;4700;48.822;9.270;2023-02-23T04:05:24;87.20;;;79.63;;
9322;SDS011;4700;48.822;9.270;2023-02-23T04:08:31;90.30;;;81.90;;
9322;SDS011;4700;48.822;9.270;2023-02-23T04:11:39;91.30;;;83.23;;
9322;SDS011;4700;48.822;9.270;2023-02-23T04:14:50;92.80;;;83.87;;
9322;SDS011;4700;48.822;9.270;2023-02-23T04:17:39;104.10;;;95.47;;
9322;SDS011;4700;48.822;9.270;2023-02-23T04:20:26;91.27;;;83.77;;
9322;SDS011;4700;48.822;9.270;2023-02-23T04:23:11;62.67;;;58.50;;
9322;SDS011;4700;48.822;9.270;2023-02-23T04:25:57;70.67;;;65.93;;
9322;SDS011;4700;48.822;9.270;2023-02-23T04:28:43;77.27;;;70.73;;
9322;SDS011;4700;48.822;9.270;2023-02-23T04:31:30;71.07;;;66.07;;
9322;SDS011;4700;48.822;9.270;2023-02-23T04:34:16;76.63;;;71.07;;
9322;SDS011;4700;48.822;9.270;2023-02-23T04:37:02;80.77;;;75.33;;
9322;SDS011;4700;48.822;9.270;2023-02-23T04:39:48;64.90;;;60.40;;
9322;SDS011;4700;48.822;9.270;2023-02-23T04:42:34;70.20;;;65.33;;
9322;SDS011;4700;48.822;9.270;2023-02-23T04:45:21;85.00;;;78.80;;
9322;SDS011;4700;48.822;9.270;2023-02-23T04:48:09;65.93;;;61.23;;
9322;SDS011;4700;48.822;9.270;2023-02-23T04:50:55;58.93;;;54.77;;
9322;SDS011;4700;48.822;9.270;2023-02-23T04:53:41;73.13;;;67.73;;
9322;SDS011;4700;48.822;9.270;2023-02-23T04:56:26;76.37;;;71.20;;
9322;SDS011;4700;48.822;9.270;2023-02-23T04:59:12;74.90;;;69.40;;
9322;SDS011;4700;48.822;9.270;2023-02-23T05:01:58;69.10;;;64.37;;
9322;SDS011;4700;48.822;9.270;2023-02-23T05:04:45;70.50;;;65.87;;
9322;SDS011;4700;48.822;9.270;2023-02-23T05:07:31;70.70;;;65.63;;
9322;SDS011;4700;48.822;9.270;2023-02-23T05:10:17;75.90;;;70.87;;
9322;SDS011;4700;48.822;9.270;2023-02-23T05:13:03;62.80;;;57.50;;
9322;SDS011;4700;48.822;9.270;2023-02-23T05:15:49;54.00;;;50.00;;
9322;SDS011;4700;48.822;9.270;2023-02-23T05:18:34;53.87;;;49.73;;
9322;SDS011;4700;48.822;9.270;2023-02-23T05:21:21;54.27;;;50.60;;
9322;SDS011;4700;48.822;9.270;2023-02-23T05:24:07;57.03;;;52.77;;
9322;SDS011;4700;48.822;9.270;2023-02-23T05:26:53;54.07;;;50.27;;
9322;SDS011;4700;48.822;9.270;2023-02-23T05:29:39;53.10;;;49.07;;
9322;SDS011;4700;48.822;9.270;2023-02-23T05:32:25;55.97;;;51.37;;
9322;SDS011;4700;48.822;9.270;2023-02-23T05:35:12;55.53;;;51.23;;
9322;SDS011;4700;48.822;9.270;2023-02-23T05:37:41;52.57;;;48.40;;
9322;SDS011;4700;48.822;9.270;2023-02-23T05:40:27;62.27;;;57.10;;
9322;SDS011;4700;48.822;9.270;2023-02-23T05:43:16;66.43;;;61.27;;
9322;SDS011;4700;48.822;9.270;2023-02-23T05:46:04;66.13;;;61.00;;
9322;SDS011;4700;48.822;9.270;2023-02-23T05:48:54;74.00;;;68.80;;
9322;SDS011;4700;48.822;9.270;2023-02-23T05:51:41;78.17;;;72.33;;
9322;SDS011;4700;48.822;9.270;2023-02-23T05:54:29;109.60;;;101.97;;
9322;SDS011;4700;48.822;9.270;2023-02-23T05:57:15;85.63;;;78.17;;
9322;SDS011;4700;48.822;9.270;2023-02-23T06:00:00;79.70;;;72.90;;
9322;SDS011;4700;48.822;9.270;2023-02-23T06:02:47;85.73;;;77.87;;
9322;SDS011;4700;48.822;9.270;2023-02-23T06:05:34;77.97;;;70.60;;
9322;SDS011;4700;48.822;9.270;2023-02-23T06:08:20;64.93;;;59.87;;
9322;SDS011;4700;48.822;9.270;2023-02-23T06:11:08;71.43;;;65.17;;
9322;SDS011;4700;48.822;9.270;2023-02-23T06:13:55;80.53;;;73.13;;
9322;SDS011;4700;48.822;9.270;2023-02-23T06:16:42;77.20;;;70.33;;
9322;SDS011;4700;48.822;9.270;2023-02-23T06:19:28;77.90;;;71.13;;
9322;SDS011;4700;48.822;9.270;2023-02-23T06:22:14;82.77;;;75.27;;
9322;SDS011;4700;48.822;9.270;2023-02-23T06:25:00;82.93;;;76.10;;
9322;SDS011;4700;48.822;9.270;2023-02-23T06:27:49;84.13;;;77.33;;
9322;SDS011;4700;48.822;9.270;2023-02-23T06:30:35;105.50;;;96.03;;
9322;SDS011;4700;48.822;9.270;2023-02-23T06:33:21;113.67;;;103.63;;
9322;SDS011;4700;48.822;9.270;2023-02-23T06:36:08;105.33;;;96.67;;
9322;SDS011;4700;48.822;9.270;2023-02-23T06:38:54;103.23;;;94.03;;
9322;SDS011;4700;48.822;9.270;2023-02-23T06:41:40;115.80;;;105.63;;
9322;SDS011;4700;48.822;9.270;2023-02-23T06:44:28;122.03;;;111.00;;
9322;SDS011;4700;48.822;9.270;2023-02-23T06:47:14;88.80;;;79.50;;
9322;SDS011;4700;48.822;9.270;2023-02-23T06:50:00;83.67;;;75.37;;
9322;SDS011;4700;48.822;9.270;2023-02-23T06:52:49;82.47;;;76.20;;
9322;SDS011;4700;48.822;9.270;2023-02-23T06:55:35;84.33;;;76.50;;
9322;SDS011;4700;48.822;9.270;2023-02-23T06:58:21;57.20;;;52.00;;
9322;SDS011;4700;48.822;9.270;2023-02-23T07:01:08;73.50;;;66.37;;
9322;SDS011;4700;48.822;9.270;2023-02-23T07:03:55;80.50;;;72.37;;
9322;SDS011;4700;48.822;9.270;2023-02-23T07:06:44;55.57;;;50.30;;
9322;SDS011;4700;48.822;9.270;2023-02-23T07:09:33;73.70;;;66.60;;
9322;SDS011;4700;48.822;9.270;2023-02-23T07:12:19;58.57;;;53.50;;
9322;SDS011;4700;48.822;9.270;2023-02-23T07:15:06;84.00;;;75.00;;
9322;SDS011;4700;48.822;9.270;2023-02-23T07:17:54;68.53;;;61.77;;
9322;SDS011;4700;48.822;9.270;2023-02-23T07:20:40;70.07;;;63.23;;
9322;SDS011;4700;48.822;9.270;2023-02-23T07:23:26;78.00;;;70.20;;
9322;SDS011;4700;48.822;9.270;2023-02-23T07:26:12;70.90;;;63.90;;
9322;SDS011;4700;48.822;9.270;2023-02-23T07:28:59;75.20;;;68.00;;
9322;SDS011;4700;48.822;9.270;2023-02-23T07:31:47;77.50;;;69.90;;
9322;SDS011;4700;48.822;9.270;2023-02-23T07:34:37;76.10;;;68.23;;
9322;SDS011;4700;48.822;9.270;2023-02-23T07:37:24;76.17;;;68.50;;
9322;SDS011;4700;48.822;9.270;2023-02-23T07:40:12;77.60;;;69.83;;
9322;SDS011;4700;48.822;9.270;2023-02-23T07:42:59;67.70;;;61.13;;
9322;SDS011;4700;48.822;9.270;2023-02-23T07:45:45;77.00;;;69.27;;
9322;SDS011;4700;48.822;9.270;2023-02-23T07:48:31;71.23;;;64.33;;
9322;SDS011;4700;48.822;9.270;2023-02-23T07:51:18;94.27;;;84.47;;
9322;SDS011;4700;48.822;9.270;2023-02-23T07:54:04;87.67;;;79.10;;
9322;SDS011;4700;48.822;9.270;2023-02-23T07:56:50;87.80;;;79.90;;
9322;SDS011;4700;48.822;9.270;2023-02-23T07:59:36;93.40;;;83.77;;
9322;SDS011;4700;48.822;9.270;2023-02-23T08:02:22;91.27;;;81.87;;
9322;SDS011;4700;48.822;9.270;2023-02-23T08:05:08;83.20;;;75.23;;
9322;SDS011;4700;48.822;9.270;2023-02-23T08:07:55;91.17;;;81.83;;
9322;SDS011;4700;48.822;9.270;2023-02-23T08:10:42;81.83;;;73.87;;
9322;SDS011;4700;48.822;9.270;2023-02-23T08:13:27;79.23;;;72.23;;
9322;SDS011;4700;48.822;9.270;2023-02-23T08:16:14;77.70;;;70.50;;
9322;SDS011;4700;48.822;9.270;2023-02-23T08:19:01;80.23;;;72.40;;
9322;SDS011;4700;48.822;9.270;2023-02-23T08:21:47;56.00;;;50.87;;
9322;SDS011;4700;48.822;9.270;2023-02-23T08:24:34;58.80;;;53.07;;
9322;SDS011;4700;48.822;9.270;2023-02-23T08:27:20;58.87;;;52.97;;
9322;SDS011;4700;48.822;9.270;2023-02-23T08:30:06;53.03;;;48.20;;
9322;SDS011;4700;48.822;9.270;2023-02-23T08:32:52;49.43;;;44.77;;
9322;SDS011;4700;48.822;9.270;2023-02-23T08:35:38;92.23;;;84.03;;
9322;SDS011;4700;48.822;9.270;2023-02-23T08:38:12;104.70;;;94.10;;
9322;SDS011;4700;48.822;9.270;2023-02-23T08:41:01;64.83;;;59.73;;
9322;SDS011;4700;48.822;9.270;2023-02-23T08:43:47;76.20;;;69.67;;
9322;SDS011;4700;48.822;9.270;2023-02-23T08:46:33;66.13;;;61.93;;
9322;SDS011;4700;48.822;9.270;2023-02-23T08:49:19;82.13;;;74.73;;
9322;SDS011;4700;48.822;9.270;2023-02-23T08:52:05;82.83;;;75.27;;
9322;SDS011;4700;48.822;9.270;2023-02-23T08:54:51;79.20;;;71.97;;
9322;SDS011;4700;48.822;9.270;2023-02-23T08:57:38;80.87;;;73.03;;
9322;SDS011;4700;48.822;9.270;2023-02-23T09:00:24;92.33;;;84.03;;
9322;SDS011;4700;48.822;9.270;2023-02-23T09:03:12;47.03;;;43.23;;
9322;SDS011;4700;48.822;9.270;2023-02-23T09:06:03;52.83;;;48.07;;
9322;SDS011;4700;48.822;9.270;2023-02-23T09:08:51;51.37;;;47.03;;
9322;SDS011;4700;48.822;9.270;2023-02-23T09:11:38;59.27;;;53.90;;
9322;SDS011;4700;48.822;9.270;2023-02-23T09:14:25;78.53;;;70.90;;
9322;SDS011;4700;48.822;9.270;2023-02-23T09:17:12;84.00;;;76.37;;
9322;SDS011;4700;48.822;9.270;2023-02-23T09:19:58;90.73;;;82.47;;
9322;SDS011;4700;48.822;9.270;2023-02-23T09:22:44;58.47;;;54.03;;
9322;SDS011;4700;48.822;9.270;2023-02-23T09:25:32;55.87;;;50.90;;
9322;SDS011;4700;48.822;9.270;2023-02-23T09:28:18;60.90;;;55.17;;
9322;SDS011;4700;48.822;9.270;2023-02-23T09:31:07;61.97;;;55.90;;
9322;SDS011;4700;48.822;9.270;2023-02-23T09:33:54;52.30;;;47.83;;
9322;SDS011;4700;48.822;9.270;2023-02-23T09:36:47;87.17;;;78.97;;
9322;SDS011;4700;48.822;9.270;2023-02-23T09:39:34;126.43;;;63.83;;
9322;SDS011;4700;48.822;9.270;2023-02-23T09:42:24;61.27;;;54.57;;
9322;SDS011;4700;48.822;9.270;2023-02-23T09:45:22;90.10;;;81.07;;
9322;SDS011;4700;48.822;9.270;2023-02-23T09:48:16;64.80;;;59.03;;
9322;SDS011;4700;48.822;9.270;2023-02-23T09:51:05;53.70;;;49.10;;
9322;SDS011;4700;48.822;9.270;2023-02-23T09:53:53;80.13;;;72.90;;
9322;SDS011;4700;48.822;9.270;2023-02-23T09:56:42;84.00;;;76.50;;
9322;SDS011;4700;48.822;9.270;2023-02-23T09:59:32;51.87;;;47.10;;
9322;SDS011;4700;48.822;9.270;2023-02-23T10:02:21;49.73;;;45.07;;
9322;SDS011;4700;48.822;9.270;2023-02-23T10:05:15;52.77;;;48.03;;
9322;SDS011;4700;48.822;9.270;2023-02-23T10:08:02;46.50;;;41.67;;
9322;SDS011;4700;48.822;9.270;2023-02-23T10:10:54;49.17;;;44.17;;
9322;SDS011;4700;48.822;9.270;2023-02-23T10:13:50;42.40;;;38.83;;
9322;SDS011;4700;48.822;9.270;2023-02-23T10:16:50;44.87;;;40.37;;
9322;SDS011;4700;48.822;9.270;2023-02-23T10:19:48;42.77;;;38.20;;
9322;SDS011;4700;48.822;9.270;2023-02-23T10:22:40;41.00;;;37.23;;
9322;SDS011;4700;48.822;9.270;2023-02-23T10:25:29;50.63;;;45.50;;
9322;SDS011;4700;48.822;9.270;2023-02-23T10:28:18;48.90;;;40.67;;
9322;SDS011;4700;48.822;9.270;2023-02-23T10:34:13;50.17;;;45.10;;
9322;SDS011;4700;48.822;9.270;2023-02-23T10:37:02;39.97;;;36.20;;
9322;SDS011;4700;48.822;9.270;2023-02-23T10:39:53;37.10;;;33.17;;
9322;SDS011;4700;48.822;9.270;2023-02-23T10:42:41;39.07;;;32.93;;
9322;SDS011;4700;48.822;9.270;2023-02-23T10:45:28;48.30;;;41.27;;
9322;SDS011;4700;48.822;9.270;2023-02-23T10:48:21;39.97;;;31.90;;
9322;SDS011;4700;48.822;9.270;2023-02-23T10:51:12;53.63;;;48.17;;
9322;SDS011;4700;48.822;9.270;2023-02-23T10:57:23;32.40;;;29.67;;
9322;SDS011;4700;48.822;9.270;2023-02-23T11:00:25;48.10;;;36.87;;
9322;SDS011;4700;48.822;9.270;2023-02-23T11:03:16;29.17;;;26.33;;
9322;SDS011;4700;48.822;9.270;2023-02-23T11:06:10;35.73;;;30.47;;
9322;SDS011;4700;48.822;9.270;2023-02-23T11:09:21;42.03;;;36.70;;
9322;SDS011;4700;48.822;9.270;2023-02-23T11:12:15;37.70;;;30.40;;
9322;SDS011;4700;48.822;9.270;2023-02-23T11:18:16;35.70;;;31.03;;
9322;SDS011;4700;48.822;9.270;2023-02-23T11:21:17;33.70;;;30.33;;
9322;SDS011;4700;48.822;9.270;2023-02-23T11:24:11;41.87;;;33.60;;
9322;SDS011;4700;48.822;9.270;2023-02-23T11:27:04;34.03;;;29.17;;
9322;SDS011;4700;48.822;9.270;2023-02-23T11:29:53;33.93;;;30.00;;
9322;SDS011;4700;48.822;9.270;2023-02-23T11:32:53;40.73;;;32.63;;
9322;SDS011;4700;48.822;9.270;2023-02-23T11:35:41;35.23;;;31.57;;
9322;SDS011;4700;48.822;9.270;2023-02-23T11:38:28;38.27;;;31.07;;
9322;SDS011;4700;48.822;9.270;2023-02-23T11:41:17;40.63;;;36.27;;
9322;SDS011;4700;48.822;9.270;2023-02-23T11:44:08;42.73;;;35.83;;
9322;SDS011;4700;48.822;9.270;2023-02-23T11:47:04;40.53;;;35.70;;
9322;SDS011;4700;48.822;9.270;2023-02-23T11:49:59;37.67;;;29.63;;
9322;SDS011;4700;48.822;9.270;2023-02-23T11:52:47;54.13;;;38.67;;
9322;SDS011;4700;48.822;9.270;2023-02-23T11:55:37;44.13;;;34.00;;
9322;SDS011;4700;48.822;9.270;2023-02-23T11:58:30;33.07;;;25.87;;
9322;SDS011;4700;48.822;9.270;2023-02-23T12:01:20;47.07;;;37.73;;
9322;SDS011;4700;48.822;9.270;2023-02-23T12:04:09;61.37;;;45.33;;
9322;SDS011;4700;48.822;9.270;2023-02-23T12:07:20;34.13;;;30.60;;
9322;SDS011;4700;48.822;9.270;2023-02-23T12:10:13;44.87;;;40.20;;
9322;SDS011;4700;48.822;9.270;2023-02-23T12:13:08;37.63;;;28.23;;
9322;SDS011;4700;48.822;9.270;2023-02-23T12:16:03;41.00;;;32.93;;
9322;SDS011;4700;48.822;9.270;2023-02-23T12:18:55;44.80;;;38.13;;
9322;SDS011;4700;48.822;9.270;2023-02-23T12:21:45;45.00;;;37.20;;
9322;SDS011;4700;48.822;9.270;2023-02-23T12:24:44;46.87;;;37.17;;
9322;SDS011;4700;48.822;9.270;2023-02-23T12:27:36;45.90;;;37.80;;
9322;SDS011;4700;48.822;9.270;2023-02-23T12:30:30;59.40;;;40.60;;
9322;SDS011;4700;48.822;9.270;2023-02-23T12:33:26;39.90;;;35.67;;
9322;SDS011;4700;48.822;9.270;2023-02-23T12:36:21;49.80;;;38.93;;
9322;SDS011;4700;48.822;9.270;2023-02-23T12:38:58;36.93;;;32.00;;
9322;SDS011;4700;48.822;9.270;2023-02-23T12:42:00;47.10;;;29.17;;
9322;SDS011;4700;48.822;9.270;2023-02-23T12:44:52;39.90;;;32.97;;
9322;SDS011;4700;48.822;9.270;2023-02-23T12:47:43;35.17;;;30.67;;
9322;SDS011;4700;48.822;9.270;2023-02-23T12:50:32;25.00;;;22.57;;
9322;SDS011;4700;48.822;9.270;2023-02-23T12:53:24;50.70;;;44.20;;
9322;SDS011;4700;48.822;9.270;2023-02-23T12:56:25;43.53;;;37.23;;
9322;SDS011;4700;48.822;9.270;2023-02-23T13:02:48;28.53;;;25.57;;
9322;SDS011;4700;48.822;9.270;2023-02-23T13:05:40;39.60;;;34.37;;
9322;SDS011;4700;48.822;9.270;2023-02-23T13:08:38;45.13;;;37.50;;
9322;SDS011;4700;48.822;9.270;2023-02-23T13:15:06;33.57;;;29.20;;
9322;SDS011;4700;48.822;9.270;2023-02-23T13:18:04;48.80;;;31.13;;
9322;SDS011;4700;48.822;9.270;2023-02-23T13:20:59;35.77;;;28.33;;
9322;SDS011;4700;48.822;9.270;2023-02-23T13:23:56;40.93;;;36.63;;
9322;SDS011;4700;48.822;9.270;2023-02-23T13:26:46;33.23;;;30.03;;
9322;SDS011;4700;48.822;9.270;2023-02-23T13:29:38;40.50;;;36.50;;
9322;SDS011;4700;48.822;9.270;2023-02-23T13:32:28;42.03;;;37.50;;
9322;SDS011;4700;48.822;9.270;2023-02-23T13:35:16;43.00;;;30.77;;
9322;SDS011;4700;48.822;9.270;2023-02-23T13:38:06;41.33;;;34.80;;
9322;SDS011;4700;48.822;9.270;2023-02-23T13:41:04;37.53;;;32.83;;
9322;SDS011;4700;48.822;9.270;2023-02-23T13:43:57;65.70;;;33.63;;
9322;SDS011;4700;48.822;9.270;2023-02-23T13:46:50;35.70;;;30.10;;
9322;SDS011;4700;48.822;9.270;2023-02-23T13:49:50;36.70;;;33.10;;
9322;SDS011;4700;48.822;9.270;2023-02-23T13:52:43;29.20;;;24.93;;
9322;SDS011;4700;48.822;9.270;2023-02-23T13:55:43;38.23;;;33.83;;
9322;SDS011;4700;48.822;9.270;2023-02-23T13:58:32;44.77;;;40.20;;
9322;SDS011;4700;48.822;9.270;2023-02-23T14:01:20;43.13;;;38.37;;
9322;SDS011;4700;48.822;9.270;2023-02-23T14:04:13;34.60;;;26.27;;
9322;SDS011;4700;48.822;9.270;2023-02-23T14:07:12;32.73;;;29.40;;
9322;SDS011;4700;48.822;9.270;2023-02-23T14:10:04;37.13;;;32.43;;
9322;SDS011;4700;48.822;9.270;2023-02-23T14:13:03;38.27;;;31.93;;
9322;SDS011;4700;48.822;9.270;2023-02-23T14:18:55;26.17;;;23.87;;
9322;SDS011;4700;48.822;9.270;2023-02-23T14:21:55;37.63;;;29.53;;
9322;SDS011;4700;48.822;9.270;2023-02-23T14:24:46;31.27;;;28.23;;
9322;SDS011;4700;48.822;9.270;2023-02-23T14:27:58;50.10;;;40.60;;
9322;SDS011;4700;48.822;9.270;2023-02-23T14:30:45;26.70;;;23.97;;
9322;SDS011;4700;48.822;9.270;2023-02-23T14:33:36;26.73;;;22.37;;
9322;SDS011;4700;48.822;9.270;2023-02-23T14:36:35;29.17;;;26.23;;
9322;SDS011;4700;48.822;9.270;2023-02-23T14:39:21;27.17;;;24.17;;
9322;SDS011;4700;48.822;9.270;2023-02-23T14:42:16;29.87;;;23.90;;
9322;SDS011;4700;48.822;9.270;2023-02-23T14:45:11;45.60;;;32.93;;
9322;SDS011;4700;48.822;9.270;2023-02-23T14:48:04;30.23;;;21.70;;
9322;SDS011;4700;48.822;9.270;2023-02-23T14:51:08;29.73;;;25.30;;
9322;SDS011;4700;48.822;9.270;2023-02-23T14:53:59;36.50;;;27.53;;
9322;SDS011;4700;48.822;9.270;2023-02-23T14:56:45;29.47;;;26.03;;
9322;SDS011;4700;48.822;9.270;2023-02-23T14:59:37;46.10;;;34.13;;
9322;SDS011;4700;48.822;9.270;2023-02-23T15:02:25;31.77;;;28.77;;
9322;SDS011;4700;48.822;9.270;2023-02-23T15:05:13;36.53;;;27.37;;
9322;SDS011;4700;48.822;9.270;2023-02-23T15:08:00;38.73;;;30.80;;
9322;SDS011;4700;48.822;9.270;2023-02-23T15:10:49;31.97;;;28.80;;
9322;SDS011;4700;48.822;9.270;2023-02-23T15:13:38;23.57;;;21.17;;
9322;SDS011;4700;48.822;9.270;2023-02-23T15:16:28;33.87;;;30.30;;
9322;SDS011;4700;48.822;9.270;2023-02-23T15:19:18;28.63;;;25.60;;
9322;SDS011;4700;48.822;9.270;2023-02-23T15:22:06;28.20;;;25.30;;
9322;SDS011;4700;48.822;9.270;2023-02-23T15:24:54;33.03;;;26.67;;
9322;SDS011;4700;48.822;9.270;2023-02-23T15:27:42;34.33;;;30.93;;
9322;SDS011;4700;48.822;9.270;2023-02-23T15:30:29;32.47;;;28.10;;
9322;SDS011;4700;48.822;9.270;2023-02-23T15:33:19;28.80;;;22.57;;
9322;SDS011;4700;48.822;9.270;2023-02-23T15:36:12;28.57;;;24.90;;
9322;SDS011;4700;48.822;9.270;2023-02-23T15:39:05;31.37;;;28.23;;
9322;SDS011;4700;48.822;9.270;2023-02-23T15:41:57;37.03;;;33.00;;
9322;SDS011;4700;48.822;9.270;2023-02-23T15:44:43;38.20;;;29.37;;
9322;SDS011;4700;48.822;9.270;2023-02-23T15:47:31;27.27;;;23.33;;
9322;SDS011;4700;48.822;9.270;2023-02-23T15:50:20;35.33;;;31.40;;
9322;SDS011;4700;48.822;9.270;2023-02-23T15:53:15;35.03;;;30.07;;
9322;SDS011;4700;48.822;9.270;2023-02-23T15:56:10;41.33;;;37.47;;
9322;SDS011;4700;48.822;9.270;2023-02-23T15:59:01;41.47;;;37.07;;
9322;SDS011;4700;48.822;9.270;2023-02-23T16:01:51;30.67;;;27.23;;
9322;SDS011;4700;48.822;9.270;2023-02-23T16:04:38;26.00;;;23.73;;
9322;SDS011;4700;48.822;9.270;2023-02-23T16:07:34;29.00;;;26.40;;
9322;SDS011;4700;48.822;9.270;2023-02-23T16:10:22;26.53;;;24.33;;
9322;SDS011;4700;48.822;9.270;2023-02-23T16:13:11;36.60;;;33.10;;
9322;SDS011;4700;48.822;9.270;2023-02-23T16:15:59;43.47;;;34.17;;
9322;SDS011;4700;48.822;9.270;2023-02-23T16:18:50;37.60;;;30.17;;
9322;SDS011;4700;48.822;9.270;2023-02-23T16:21:37;27.53;;;23.90;;
9322;SDS011;4700;48.822;9.270;2023-02-23T16:24:25;31.17;;;28.17;;
9322;SDS011;4700;48.822;9.270;2023-02-23T16:27:12;28.27;;;25.47;;
9322;SDS011;4700;48.822;9.270;2023-02-23T16:30:03;25.90;;;23.87;;
9322;SDS011;4700;48.822;9.270;2023-02-23T16:33:04;33.60;;;30.43;;
9322;SDS011;4700;48.822;9.270;2023-02-23T16:36:07;41.57;;;36.83;;
9322;SDS011;4700;48.822;9.270;2023-02-23T16:38:58;26.23;;;23.77;;
9322;SDS011;4700;48.822;9.270;2023-02-23T16:41:47;31.23;;;28.13;;
9322;SDS011;4700;48.822;9.270;2023-02-23T16:44:34;24.23;;;22.17;;
9322;SDS011;4700;48.822;9.270;2023-02-23T16:47:30;25.33;;;22.50;;
9322;SDS011;4700;48.822;9.270;2023-02-23T16:50:20;29.73;;;26.87;;
9322;SDS011;4700;48.822;9.270;2023-02-23T16:53:08;39.70;;;35.40;;
9322;SDS011;4700;48.822;9.270;2023-02-23T16:55:55;33.17;;;25.97;;
9322;SDS011;4700;48.822;9.270;2023-02-23T16:58:45;31.03;;;27.60;;
9322;SDS011;4700;48.822;9.270;2023-02-23T17:01:35;24.20;;;22.13;;
9322;SDS011;4700;48.822;9.270;2023-02-23T17:04:21;32.67;;;29.57;;
9322;SDS011;4700;48.822;9.270;2023-02-23T17:07:07;44.63;;;39.83;;
9322;SDS011;4700;48.822;9.270;2023-02-23T17:09:52;24.63;;;22.27;;
9322;SDS011;4700;48.822;9.270;2023-02-23T17:12:38;31.60;;;28.77;;
9322;SDS011;4700;48.822;9.270;2023-02-23T17:15:26;31.47;;;26.73;;
9322;SDS011;4700;48.822;9.270;2023-02-23T17:18:14;28.27;;;26.17;;
9322;SDS011;4700;48.822;9.270;2023-02-23T17:21:01;27.73;;;25.57;;
9322;SDS011;4700;48.822;9.270;2023-02-23T17:23:48;26.77;;;24.67;;
9322;SDS011;4700;48.822;9.270;2023-02-23T17:26:34;30.23;;;27.67;;
9322;SDS011;4700;48.822;9.270;2023-02-23T17:29:22;35.23;;;32.47;;
9322;SDS011;4700;48.822;9.270;2023-02-23T17:32:10;36.13;;;32.53;;
9322;SDS011;4700;48.822;9.270;2023-02-23T17:34:55;40.43;;;36.40;;
9322;SDS011;4700;48.822;9.270;2023-02-23T17:40:16;31.47;;;28.53;;